sensor_id;sensor_type;location;lat;lon;timestamp;pressure;altitude;pressure_sealevel;temperature;humidity
12077;BME280;12420;42.676;23.262;2023-06-19T00:00:33;94619.03;;;19.39;100.00
12077;BME280;12420;42.676;23.262;2023-06-19T00:03:00;94582.28;;;19.07;100.00
12077;BME280;12420;42.676;23.262;2023-06-19T00:05:27;94654.38;;;19.61;100.00
12077;BME280;12420;42.676;23.262;2023-06-19T00:07:54;94648.44;;;19.47;100.00
12077;BME280;12420;42.676;23.262;2023-06-19T00:10:24;94686.88;;;19.55;100.00
12077;BME280;12420;42.676;23.262;2023-06-19T00:12:51;94699.88;;;19.60;100.00
12077;BME280;12420;42.676;23.262;2023-06-19T00:15:18;94714.81;;;19.62;100.00
12077;BME280;12420;42.676;23.262;2023-06-19T00:17:48;94708.44;;;19.52;100.00
12077;BME280;12420;42.676;23.262;2023-06-19T00:20:15;94603.38;;;18.99;100.00
12077;BME280;12420;42.676;23.262;2023-06-19T00:22:43;94638.63;;;19.29;100.00
12077;BME280;12420;42.676;23.262;2023-06-19T00:25:10;94691.97;;;19.76;100.00
12077;BME280;12420;42.676;23.262;2023-06-19T00:27:36;94677.94;;;19.76;100.00
12077;BME280;12420;42.676;23.262;2023-06-19T00:30:06;94690.38;;;19.82;100.00
12077;BME280;12420;42.676;23.262;2023-06-19T00:32:33;94685.91;;;19.79;100.00
12077;BME280;12420;42.676;23.262;2023-06-19T00:35:13;94679.56;;;19.79;100.00
12077;BME280;12420;42.676;23.262;2023-06-19T00:37:41;94683.09;;;19.69;100.00
12077;BME280;12420;42.676;23.262;2023-06-19T00:40:14;94686.31;;;19.66;100.00
12077;BME280;12420;42.676;23.262;2023-06-19T00:42:43;94610.03;;;19.03;100.00
12077;BME280;12420;42.676;23.262;2023-06-19T00:45:10;94672.50;;;19.50;100.00
12077;BME280;12420;42.676;23.262;2023-06-19T00:47:37;94651.00;;;19.16;100.00
12077;BME280;12420;42.676;23.262;2023-06-19T00:50:06;94653.84;;;19.26;100.00
12077;BME280;12420;42.676;23.262;2023-06-19T00:52:35;94616.50;;;18.96;100.00
12077;BME280;12420;42.676;23.262;2023-06-19T00:55:03;94669.66;;;19.31;100.00
12077;BME280;12420;42.676;23.262;2023-06-19T00:57:31;94664.97;;;19.06;100.00
12077;BME280;12420;42.676;23.262;2023-06-19T00:59:58;94558.44;;;18.52;100.00
12077;BME280;12420;42.676;23.262;2023-06-19T01:02:25;94672.00;;;18.98;100.00
12077;BME280;12420;42.676;23.262;2023-06-19T01:04:52;94588.56;;;18.61;100.00
12077;BME280;12420;42.676;23.262;2023-06-19T01:07:25;94618.34;;;18.84;100.00
12077;BME280;12420;42.676;23.262;2023-06-19T01:09:59;94625.94;;;18.91;100.00
12077;BME280;12420;42.676;23.262;2023-06-19T01:12:33;94635.13;;;19.01;100.00
12077;BME280;12420;42.676;23.262;2023-06-19T01:15:04;94612.91;;;18.86;100.00
12077;BME280;12420;42.676;23.262;2023-06-19T01:17:32;94630.25;;;19.02;100.00
12077;BME280;12420;42.676;23.262;2023-06-19T01:20:01;94637.22;;;19.11;100.00
12077;BME280;12420;42.676;23.262;2023-06-19T01:22:37;94644.47;;;19.14;100.00
12077;BME280;12420;42.676;23.262;2023-06-19T01:25:05;94597.88;;;18.91;100.00
12077;BME280;12420;42.676;23.262;2023-06-19T01:27:33;94649.22;;;19.21;100.00
12077;BME280;12420;42.676;23.262;2023-06-19T01:30:01;94652.94;;;19.23;100.00
12077;BME280;12420;42.676;23.262;2023-06-19T01:32:33;94555.13;;;18.73;100.00
12077;BME280;12420;42.676;23.262;2023-06-19T01:35:04;94623.75;;;18.99;100.00
12077;BME280;12420;42.676;23.262;2023-06-19T01:37:33;94586.66;;;18.91;100.00
12077;BME280;12420;42.676;23.262;2023-06-19T01:40:02;94626.31;;;19.15;100.00
12077;BME280;12420;42.676;23.262;2023-06-19T01:42:32;94665.91;;;19.19;100.00
12077;BME280;12420;42.676;23.262;2023-06-19T01:45:00;94689.31;;;19.31;100.00
12077;BME280;12420;42.676;23.262;2023-06-19T01:47:28;94624.69;;;19.12;100.00
12077;BME280;12420;42.676;23.262;2023-06-19T01:49:55;94551.75;;;18.48;100.00
12077;BME280;12420;42.676;23.262;2023-06-19T01:52:22;94653.25;;;19.27;100.00
12077;BME280;12420;42.676;23.262;2023-06-19T01:54:50;94612.44;;;18.80;100.00
12077;BME280;12420;42.676;23.262;2023-06-19T01:57:18;94651.28;;;19.20;100.00
12077;BME280;12420;42.676;23.262;2023-06-19T01:59:45;94566.03;;;18.42;100.00
12077;BME280;12420;42.676;23.262;2023-06-19T02:02:14;94646.97;;;18.82;100.00
12077;BME280;12420;42.676;23.262;2023-06-19T02:04:40;94641.63;;;18.77;100.00
12077;BME280;12420;42.676;23.262;2023-06-19T02:07:07;94637.09;;;18.64;100.00
12077;BME280;12420;42.676;23.262;2023-06-19T02:09:38;94660.25;;;18.82;100.00
12077;BME280;12420;42.676;23.262;2023-06-19T02:12:08;94657.53;;;18.74;100.00
12077;BME280;12420;42.676;23.262;2023-06-19T02:14:37;94665.88;;;18.82;100.00
12077;BME280;12420;42.676;23.262;2023-06-19T02:17:04;94632.34;;;18.57;100.00
12077;BME280;12420;42.676;23.262;2023-06-19T02:19:31;94673.53;;;18.81;100.00
12077;BME280;12420;42.676;23.262;2023-06-19T02:21:58;94637.41;;;18.41;100.00
12077;BME280;12420;42.676;23.262;2023-06-19T02:24:25;94675.09;;;18.75;100.00
12077;BME280;12420;42.676;23.262;2023-06-19T02:26:51;94684.50;;;18.70;100.00
12077;BME280;12420;42.676;23.262;2023-06-19T02:29:18;94633.50;;;18.54;100.00
12077;BME280;12420;42.676;23.262;2023-06-19T02:31:46;94684.09;;;18.73;100.00
12077;BME280;12420;42.676;23.262;2023-06-19T02:34:15;94630.44;;;18.59;100.00
12077;BME280;12420;42.676;23.262;2023-06-19T02:36:42;94682.97;;;19.03;100.00
12077;BME280;12420;42.676;23.262;2023-06-19T02:39:09;94672.59;;;18.96;100.00
12077;BME280;12420;42.676;23.262;2023-06-19T02:41:35;94686.06;;;19.07;100.00
12077;BME280;12420;42.676;23.262;2023-06-19T02:44:03;94668.47;;;18.97;100.00
12077;BME280;12420;42.676;23.262;2023-06-19T02:46:30;94641.81;;;18.79;100.00
12077;BME280;12420;42.676;23.262;2023-06-19T02:48:59;94691.75;;;19.17;100.00
12077;BME280;12420;42.676;23.262;2023-06-19T02:51:26;94651.16;;;18.91;100.00
12077;BME280;12420;42.676;23.262;2023-06-19T02:53:53;94669.84;;;19.06;100.00
12077;BME280;12420;42.676;23.262;2023-06-19T02:56:20;94661.00;;;19.09;100.00
12077;BME280;12420;42.676;23.262;2023-06-19T02:58:47;94678.28;;;19.16;100.00
12077;BME280;12420;42.676;23.262;2023-06-19T03:01:14;94689.41;;;19.23;100.00
12077;BME280;12420;42.676;23.262;2023-06-19T03:03:41;94658.28;;;19.02;100.00
12077;BME280;12420;42.676;23.262;2023-06-19T03:06:09;94644.94;;;18.65;100.00
12077;BME280;12420;42.676;23.262;2023-06-19T03:08:36;94666.50;;;18.90;100.00
12077;BME280;12420;42.676;23.262;2023-06-19T03:11:03;94650.56;;;18.93;100.00
12077;BME280;12420;42.676;23.262;2023-06-19T03:13:33;94688.50;;;19.21;100.00
12077;BME280;12420;42.676;23.262;2023-06-19T03:16:02;94691.63;;;19.25;100.00
12077;BME280;12420;42.676;23.262;2023-06-19T03:18:29;94678.94;;;18.97;100.00
12077;BME280;12420;42.676;23.262;2023-06-19T03:20:56;94680.69;;;18.92;100.00
12077;BME280;12420;42.676;23.262;2023-06-19T03:23:24;94603.78;;;18.41;100.00
12077;BME280;12420;42.676;23.262;2023-06-19T03:25:51;94714.72;;;19.06;100.00
12077;BME280;12420;42.676;23.262;2023-06-19T03:28:18;94680.09;;;18.94;100.00
12077;BME280;12420;42.676;23.262;2023-06-19T03:30:45;94685.09;;;18.85;100.00
12077;BME280;12420;42.676;23.262;2023-06-19T03:33:12;94689.72;;;19.00;100.00
12077;BME280;12420;42.676;23.262;2023-06-19T03:35:39;94614.59;;;18.44;100.00
12077;BME280;12420;42.676;23.262;2023-06-19T03:38:06;94678.19;;;18.96;100.00
12077;BME280;12420;42.676;23.262;2023-06-19T03:40:36;94686.34;;;19.02;100.00
12077;BME280;12420;42.676;23.262;2023-06-19T03:43:03;94689.50;;;19.16;100.00
12077;BME280;12420;42.676;23.262;2023-06-19T03:45:31;94692.78;;;19.22;100.00
12077;BME280;12420;42.676;23.262;2023-06-19T03:47:58;94694.59;;;19.27;100.00
12077;BME280;12420;42.676;23.262;2023-06-19T03:50:25;94651.47;;;18.95;100.00
12077;BME280;12420;42.676;23.262;2023-06-19T03:52:51;94662.72;;;19.05;100.00
12077;BME280;12420;42.676;23.262;2023-06-19T03:55:18;94651.94;;;19.28;100.00
12077;BME280;12420;42.676;23.262;2023-06-19T03:57:46;94619.38;;;19.16;100.00
12077;BME280;12420;42.676;23.262;2023-06-19T04:00:14;94630.94;;;19.29;100.00
12077;BME280;12420;42.676;23.262;2023-06-19T04:02:42;94684.41;;;19.68;100.00
12077;BME280;12420;42.676;23.262;2023-06-19T04:05:11;94693.06;;;19.90;100.00
12077;BME280;12420;42.676;23.262;2023-06-19T04:07:38;94635.13;;;19.48;100.00
12077;BME280;12420;42.676;23.262;2023-06-19T04:10:06;94645.84;;;19.79;100.00
12077;BME280;12420;42.676;23.262;2023-06-19T04:12:33;94610.50;;;19.66;100.00
12077;BME280;12420;42.676;23.262;2023-06-19T04:15:02;94646.94;;;20.03;100.00
12077;BME280;12420;42.676;23.262;2023-06-19T04:17:29;94700.19;;;20.39;100.00
12077;BME280;12420;42.676;23.262;2023-06-19T04:19:56;94684.34;;;20.44;100.00
12077;BME280;12420;42.676;23.262;2023-06-19T04:22:23;94689.84;;;20.52;100.00
12077;BME280;12420;42.676;23.262;2023-06-19T04:24:49;94683.63;;;20.63;100.00
12077;BME280;12420;42.676;23.262;2023-06-19T04:27:16;94684.81;;;20.60;97.77
12077;BME280;12420;42.676;23.262;2023-06-19T04:29:43;94666.75;;;20.63;97.48
12077;BME280;12420;42.676;23.262;2023-06-19T04:32:12;94688.47;;;20.92;96.94
12077;BME280;12420;42.676;23.262;2023-06-19T04:34:40;94644.56;;;20.67;97.00
12077;BME280;12420;42.676;23.262;2023-06-19T04:37:11;94701.03;;;21.10;99.65
12077;BME280;12420;42.676;23.262;2023-06-19T04:39:38;94654.44;;;20.88;93.27
12077;BME280;12420;42.676;23.262;2023-06-19T04:42:07;94663.88;;;21.02;88.97
12077;BME280;12420;42.676;23.262;2023-06-19T04:44:33;94685.78;;;21.03;88.32
12077;BME280;12420;42.676;23.262;2023-06-19T04:47:02;94676.03;;;20.95;85.76
12077;BME280;12420;42.676;23.262;2023-06-19T04:49:30;94643.97;;;20.39;86.09
12077;BME280;12420;42.676;23.262;2023-06-19T04:51:57;94672.38;;;20.44;89.61
12077;BME280;12420;42.676;23.262;2023-06-19T04:54:25;94675.78;;;20.62;86.89
12077;BME280;12420;42.676;23.262;2023-06-19T04:56:52;94660.25;;;20.51;88.44
12077;BME280;12420;42.676;23.262;2023-06-19T04:59:19;94663.63;;;20.49;86.22
12077;BME280;12420;42.676;23.262;2023-06-19T05:01:46;94656.41;;;19.98;86.06
12077;BME280;12420;42.676;23.262;2023-06-19T05:04:12;94675.03;;;20.03;87.40
12077;BME280;12420;42.676;23.262;2023-06-19T05:06:40;94698.81;;;20.02;88.47
12077;BME280;12420;42.676;23.262;2023-06-19T05:09:08;94682.88;;;20.14;89.93
12077;BME280;12420;42.676;23.262;2023-06-19T05:11:35;94673.25;;;20.36;90.51
12077;BME280;12420;42.676;23.262;2023-06-19T05:14:01;94624.47;;;20.03;89.45
12077;BME280;12420;42.676;23.262;2023-06-19T05:16:28;94678.41;;;20.01;88.94
12077;BME280;12420;42.676;23.262;2023-06-19T05:18:56;94686.72;;;20.19;90.38
12077;BME280;12420;42.676;23.262;2023-06-19T05:21:24;94693.81;;;20.29;88.16
12077;BME280;12420;42.676;23.262;2023-06-19T05:23:52;94682.28;;;20.06;88.40
12077;BME280;12420;42.676;23.262;2023-06-19T05:26:20;94687.03;;;20.13;90.14
12077;BME280;12420;42.676;23.262;2023-06-19T05:28:48;94676.53;;;20.23;90.00
12077;BME280;12420;42.676;23.262;2023-06-19T05:31:15;94696.03;;;20.50;88.94
12077;BME280;12420;42.676;23.262;2023-06-19T05:33:42;94697.25;;;20.57;87.79
12077;BME280;12420;42.676;23.262;2023-06-19T05:36:09;94607.16;;;19.77;87.23
12077;BME280;12420;42.676;23.262;2023-06-19T05:38:37;94704.03;;;20.44;87.76
12077;BME280;12420;42.676;23.262;2023-06-19T05:41:08;94711.31;;;20.76;88.93
12077;BME280;12420;42.676;23.262;2023-06-19T05:43:36;94719.75;;;20.76;87.61
12077;BME280;12420;42.676;23.262;2023-06-19T05:46:03;94739.72;;;20.51;89.97
12077;BME280;12420;42.676;23.262;2023-06-19T05:48:30;94713.34;;;20.76;90.90
12077;BME280;12420;42.676;23.262;2023-06-19T05:50:57;94713.19;;;20.84;91.67
12077;BME280;12420;42.676;23.262;2023-06-19T05:53:24;94721.38;;;20.79;90.51
12077;BME280;12420;42.676;23.262;2023-06-19T05:55:50;94687.00;;;20.81;89.51
12077;BME280;12420;42.676;23.262;2023-06-19T05:58:21;94704.16;;;21.05;90.88
12077;BME280;12420;42.676;23.262;2023-06-19T06:00:52;94720.41;;;21.16;87.93
12077;BME280;12420;42.676;23.262;2023-06-19T06:03:29;94724.66;;;21.27;91.13
12077;BME280;12420;42.676;23.262;2023-06-19T06:05:56;94727.81;;;21.11;86.22
12077;BME280;12420;42.676;23.262;2023-06-19T06:08:28;94722.66;;;20.98;89.99
12077;BME280;12420;42.676;23.262;2023-06-19T06:10:55;94713.69;;;21.31;93.85
12077;BME280;12420;42.676;23.262;2023-06-19T06:13:24;94724.63;;;21.46;88.46
12077;BME280;12420;42.676;23.262;2023-06-19T06:15:55;94723.59;;;21.51;88.43
12077;BME280;12420;42.676;23.262;2023-06-19T06:18:22;94733.06;;;21.56;87.31
12077;BME280;12420;42.676;23.262;2023-06-19T06:20:49;94732.34;;;21.36;88.31
12077;BME280;12420;42.676;23.262;2023-06-19T06:23:15;94719.88;;;21.49;89.10
12077;BME280;12420;42.676;23.262;2023-06-19T06:25:42;94736.44;;;21.64;86.97
12077;BME280;12420;42.676;23.262;2023-06-19T06:28:11;94744.22;;;21.75;87.17
12077;BME280;12420;42.676;23.262;2023-06-19T06:30:39;94722.31;;;21.74;84.68
12077;BME280;12420;42.676;23.262;2023-06-19T06:33:07;94728.72;;;21.64;83.35
12077;BME280;12420;42.676;23.262;2023-06-19T06:35:34;94714.56;;;21.43;85.15
12077;BME280;12420;42.676;23.262;2023-06-19T06:38:01;94706.72;;;21.41;80.10
12077;BME280;12420;42.676;23.262;2023-06-19T06:40:31;94654.78;;;21.13;80.48
12077;BME280;12420;42.676;23.262;2023-06-19T06:42:59;94762.81;;;22.00;83.11
12077;BME280;12420;42.676;23.262;2023-06-19T06:45:29;94751.47;;;21.88;78.81
12077;BME280;12420;42.676;23.262;2023-06-19T06:47:57;94746.25;;;21.84;77.39
12077;BME280;12420;42.676;23.262;2023-06-19T06:50:24;94684.63;;;21.38;79.25
12077;BME280;12420;42.676;23.262;2023-06-19T06:52:51;94698.41;;;21.43;79.07
12077;BME280;12420;42.676;23.262;2023-06-19T06:55:18;94742.25;;;22.19;79.31
12077;BME280;12420;42.676;23.262;2023-06-19T06:57:45;94751.16;;;22.15;77.95
12077;BME280;12420;42.676;23.262;2023-06-19T07:00:13;94711.38;;;21.68;75.99
12077;BME280;12420;42.676;23.262;2023-06-19T07:02:41;94729.69;;;21.79;76.52
12077;BME280;12420;42.676;23.262;2023-06-19T07:05:12;94718.44;;;21.79;77.74
12077;BME280;12420;42.676;23.262;2023-06-19T07:07:40;94723.00;;;21.84;75.76
12077;BME280;12420;42.676;23.262;2023-06-19T07:10:09;94738.75;;;22.08;77.31
12077;BME280;12420;42.676;23.262;2023-06-19T07:12:49;94745.75;;;22.29;78.81
12077;BME280;12420;42.676;23.262;2023-06-19T07:15:30;94741.25;;;22.36;78.30
12077;BME280;12420;42.676;23.262;2023-06-19T07:17:58;94743.00;;;22.41;77.55
12077;BME280;12420;42.676;23.262;2023-06-19T07:20:28;94703.72;;;22.33;76.55
12077;BME280;12420;42.676;23.262;2023-06-19T07:23:10;94729.16;;;22.45;76.28
12077;BME280;12420;42.676;23.262;2023-06-19T07:25:45;94751.53;;;22.52;79.34
12077;BME280;12420;42.676;23.262;2023-06-19T07:28:12;94752.84;;;22.51;76.42
12077;BME280;12420;42.676;23.262;2023-06-19T07:30:40;94736.47;;;22.17;77.84
12077;BME280;12420;42.676;23.262;2023-06-19T07:33:07;94739.97;;;22.27;77.03
12077;BME280;12420;42.676;23.262;2023-06-19T07:35:39;94750.78;;;21.99;79.03
12077;BME280;12420;42.676;23.262;2023-06-19T07:38:06;94757.81;;;22.20;79.42
12077;BME280;12420;42.676;23.262;2023-06-19T07:40:32;94726.03;;;21.98;74.83
12077;BME280;12420;42.676;23.262;2023-06-19T07:42:59;94750.41;;;22.15;75.85
12077;BME280;12420;42.676;23.262;2023-06-19T07:45:26;94735.66;;;22.26;75.34
12077;BME280;12420;42.676;23.262;2023-06-19T07:47:56;94734.66;;;22.43;76.31
12077;BME280;12420;42.676;23.262;2023-06-19T07:50:23;94757.84;;;22.63;75.65
12077;BME280;12420;42.676;23.262;2023-06-19T07:52:52;94760.25;;;22.35;74.42
12077;BME280;12420;42.676;23.262;2023-06-19T07:55:19;94745.13;;;22.30;76.73
12077;BME280;12420;42.676;23.262;2023-06-19T07:57:45;94713.88;;;22.26;73.73
12077;BME280;12420;42.676;23.262;2023-06-19T08:00:13;94759.13;;;22.50;73.11
12077;BME280;12420;42.676;23.262;2023-06-19T08:02:41;94751.78;;;22.57;73.99
12077;BME280;12420;42.676;23.262;2023-06-19T08:05:09;94738.66;;;22.49;72.97
12077;BME280;12420;42.676;23.262;2023-06-19T08:07:37;94749.84;;;22.59;73.16
12077;BME280;12420;42.676;23.262;2023-06-19T08:10:24;94739.47;;;22.73;71.52
12077;BME280;12420;42.676;23.262;2023-06-19T08:12:53;94706.44;;;22.64;71.30
12077;BME280;12420;42.676;23.262;2023-06-19T08:15:21;94719.50;;;22.81;68.63
12077;BME280;12420;42.676;23.262;2023-06-19T08:17:48;94739.50;;;23.07;65.43
12077;BME280;12420;42.676;23.262;2023-06-19T08:20:16;94721.97;;;23.08;61.38
12077;BME280;12420;42.676;23.262;2023-06-19T08:22:43;94727.97;;;23.03;65.85
12077;BME280;12420;42.676;23.262;2023-06-19T08:25:10;94717.53;;;23.05;65.88
12077;BME280;12420;42.676;23.262;2023-06-19T08:27:43;94736.38;;;23.24;66.47
12077;BME280;12420;42.676;23.262;2023-06-19T08:30:24;94716.25;;;22.96;68.08
12077;BME280;12420;42.676;23.262;2023-06-19T08:32:51;94754.94;;;23.39;64.59
12077;BME280;12420;42.676;23.262;2023-06-19T08:35:20;94749.53;;;23.43;66.58
12077;BME280;12420;42.676;23.262;2023-06-19T08:37:48;94751.63;;;23.43;67.39
12077;BME280;12420;42.676;23.262;2023-06-19T08:40:15;94756.91;;;23.48;61.01
12077;BME280;12420;42.676;23.262;2023-06-19T08:42:44;94753.47;;;23.50;61.00
12077;BME280;12420;42.676;23.262;2023-06-19T08:45:11;94773.28;;;23.61;60.76
12077;BME280;12420;42.676;23.262;2023-06-19T08:47:38;94754.97;;;23.62;62.75
12077;BME280;12420;42.676;23.262;2023-06-19T08:50:05;94752.06;;;23.72;58.58
12077;BME280;12420;42.676;23.262;2023-06-19T08:52:33;94748.19;;;23.56;58.67
12077;BME280;12420;42.676;23.262;2023-06-19T08:55:11;94719.28;;;23.22;60.23
12077;BME280;12420;42.676;23.262;2023-06-19T08:57:51;94749.53;;;23.43;61.50
12077;BME280;12420;42.676;23.262;2023-06-19T09:00:26;94750.06;;;23.63;63.45
12077;BME280;12420;42.676;23.262;2023-06-19T09:02:59;94761.34;;;23.51;58.19
12077;BME280;12420;42.676;23.262;2023-06-19T09:05:28;94756.03;;;23.46;60.59
12077;BME280;12420;42.676;23.262;2023-06-19T09:07:58;94756.16;;;23.48;58.49
12077;BME280;12420;42.676;23.262;2023-06-19T09:10:28;94747.00;;;23.59;58.54
12077;BME280;12420;42.676;23.262;2023-06-19T09:13:13;94744.16;;;23.71;61.34
12077;BME280;12420;42.676;23.262;2023-06-19T09:15:39;94739.91;;;23.81;61.85
12077;BME280;12420;42.676;23.262;2023-06-19T09:18:11;94748.00;;;23.99;57.03
12077;BME280;12420;42.676;23.262;2023-06-19T09:20:45;94724.41;;;23.82;53.59
12077;BME280;12420;42.676;23.262;2023-06-19T09:23:13;94740.53;;;23.92;56.69
12077;BME280;12420;42.676;23.262;2023-06-19T09:25:48;94739.50;;;23.99;60.73
12077;BME280;12420;42.676;23.262;2023-06-19T09:28:21;94740.75;;;24.08;60.13
12077;BME280;12420;42.676;23.262;2023-06-19T09:30:56;94741.97;;;24.16;60.98
12077;BME280;12420;42.676;23.262;2023-06-19T09:33:25;94727.47;;;24.10;59.35
12077;BME280;12420;42.676;23.262;2023-06-19T09:35:53;94748.59;;;24.21;60.30
12077;BME280;12420;42.676;23.262;2023-06-19T09:38:22;94728.94;;;24.11;58.95
12077;BME280;12420;42.676;23.262;2023-06-19T09:40:52;94736.03;;;24.24;60.09
12077;BME280;12420;42.676;23.262;2023-06-19T09:43:25;94756.47;;;23.99;57.16
12077;BME280;12420;42.676;23.262;2023-06-19T09:45:55;94749.09;;;23.94;57.00
12077;BME280;12420;42.676;23.262;2023-06-19T09:48:27;94742.22;;;24.09;58.25
12077;BME280;12420;42.676;23.262;2023-06-19T09:51:00;94744.19;;;24.18;58.18
12077;BME280;12420;42.676;23.262;2023-06-19T09:53:27;94738.41;;;24.27;59.48
12077;BME280;12420;42.676;23.262;2023-06-19T09:55:55;94744.41;;;24.22;58.87
12077;BME280;12420;42.676;23.262;2023-06-19T09:58:24;94740.72;;;24.19;56.45
12077;BME280;12420;42.676;23.262;2023-06-19T10:00:54;94739.00;;;24.38;59.53
12077;BME280;12420;42.676;23.262;2023-06-19T10:03:30;94703.88;;;24.05;55.80
12077;BME280;12420;42.676;23.262;2023-06-19T10:05:58;94697.59;;;24.07;56.93
12077;BME280;12420;42.676;23.262;2023-06-19T10:08:27;94727.81;;;24.16;60.08
12077;BME280;12420;42.676;23.262;2023-06-19T10:10:56;94728.56;;;24.17;54.30
12077;BME280;12420;42.676;23.262;2023-06-19T10:13:34;94723.41;;;24.25;55.65
12077;BME280;12420;42.676;23.262;2023-06-19T10:16:02;94728.16;;;24.34;55.90
12077;BME280;12420;42.676;23.262;2023-06-19T10:18:28;94672.50;;;24.13;57.79
12077;BME280;12420;42.676;23.262;2023-06-19T10:20:55;94715.34;;;24.57;54.72
12077;BME280;12420;42.676;23.262;2023-06-19T10:23:25;94721.84;;;24.59;51.97
12077;BME280;12420;42.676;23.262;2023-06-19T10:25:59;94697.03;;;24.46;52.58
12077;BME280;12420;42.676;23.262;2023-06-19T10:28:27;94711.66;;;24.54;55.54
12077;BME280;12420;42.676;23.262;2023-06-19T10:31:03;94718.03;;;24.55;57.77
12077;BME280;12420;42.676;23.262;2023-06-19T10:33:35;94698.63;;;24.49;54.99
12077;BME280;12420;42.676;23.262;2023-06-19T10:36:14;94708.84;;;24.80;55.54
12077;BME280;12420;42.676;23.262;2023-06-19T10:38:41;94714.50;;;24.80;55.37
12077;BME280;12420;42.676;23.262;2023-06-19T10:41:15;94684.78;;;24.67;58.41
12077;BME280;12420;42.676;23.262;2023-06-19T10:43:41;94672.81;;;24.43;55.50
12077;BME280;12420;42.676;23.262;2023-06-19T10:46:09;94693.44;;;24.57;54.83
12077;BME280;12420;42.676;23.262;2023-06-19T10:48:36;94708.41;;;24.72;54.84
12077;BME280;12420;42.676;23.262;2023-06-19T10:51:03;94681.28;;;24.80;56.90
12077;BME280;12420;42.676;23.262;2023-06-19T10:53:31;94722.56;;;24.97;57.46
12077;BME280;12420;42.676;23.262;2023-06-19T10:56:00;94705.16;;;24.77;55.89
12077;BME280;12420;42.676;23.262;2023-06-19T10:58:28;94704.72;;;24.95;55.97
12077;BME280;12420;42.676;23.262;2023-06-19T11:00:55;94706.47;;;25.13;58.70
12077;BME280;12420;42.676;23.262;2023-06-19T11:03:24;94699.31;;;25.24;58.26
12077;BME280;12420;42.676;23.262;2023-06-19T11:05:50;94687.44;;;25.28;58.25
12077;BME280;12420;42.676;23.262;2023-06-19T11:08:18;94695.78;;;25.12;57.44
12077;BME280;12420;42.676;23.262;2023-06-19T11:10:45;94691.09;;;25.17;58.02
12077;BME280;12420;42.676;23.262;2023-06-19T11:13:14;94698.59;;;25.38;55.78
12077;BME280;12420;42.676;23.262;2023-06-19T11:15:42;94679.84;;;25.44;57.26
12077;BME280;12420;42.676;23.262;2023-06-19T11:18:08;94697.88;;;25.51;54.36
12077;BME280;12420;42.676;23.262;2023-06-19T11:20:45;94700.47;;;25.33;54.34
12077;BME280;12420;42.676;23.262;2023-06-19T11:23:12;94673.97;;;25.15;55.65
12077;BME280;12420;42.676;23.262;2023-06-19T11:25:41;94685.50;;;25.58;57.07
12077;BME280;12420;42.676;23.262;2023-06-19T11:28:12;94690.97;;;25.54;56.64
12077;BME280;12420;42.676;23.262;2023-06-19T11:30:41;94689.88;;;25.33;58.19
12077;BME280;12420;42.676;23.262;2023-06-19T11:33:18;94671.91;;;25.29;56.25
12077;BME280;12420;42.676;23.262;2023-06-19T11:36:04;94680.16;;;25.50;56.46
12077;BME280;12420;42.676;23.262;2023-06-19T11:38:32;94683.63;;;25.76;59.21
12077;BME280;12420;42.676;23.262;2023-06-19T11:41:00;94654.34;;;25.72;56.79
12077;BME280;12420;42.676;23.262;2023-06-19T11:43:30;94682.00;;;25.85;55.82
12077;BME280;12420;42.676;23.262;2023-06-19T11:46:02;94672.88;;;26.01;54.60
12077;BME280;12420;42.676;23.262;2023-06-19T11:48:29;94681.03;;;26.22;57.01
12077;BME280;12420;42.676;23.262;2023-06-19T11:50:56;94662.13;;;26.13;53.79
12077;BME280;12420;42.676;23.262;2023-06-19T11:53:24;94686.44;;;26.46;54.87
12077;BME280;12420;42.676;23.262;2023-06-19T11:55:51;94683.47;;;26.71;55.55
12077;BME280;12420;42.676;23.262;2023-06-19T11:58:19;94671.22;;;26.39;55.48
12077;BME280;12420;42.676;23.262;2023-06-19T12:00:47;94677.22;;;26.59;54.94
12077;BME280;12420;42.676;23.262;2023-06-19T12:03:15;94644.28;;;25.96;55.58
12077;BME280;12420;42.676;23.262;2023-06-19T12:05:49;94673.38;;;25.97;57.54
12077;BME280;12420;42.676;23.262;2023-06-19T12:08:18;94672.44;;;26.06;58.27
12077;BME280;12420;42.676;23.262;2023-06-19T12:10:48;94688.59;;;26.04;58.28
12077;BME280;12420;42.676;23.262;2023-06-19T12:13:15;94672.84;;;25.87;58.10
12077;BME280;12420;42.676;23.262;2023-06-19T12:15:41;94670.88;;;26.03;57.25
12077;BME280;12420;42.676;23.262;2023-06-19T12:18:09;94679.03;;;26.25;58.07
12077;BME280;12420;42.676;23.262;2023-06-19T12:20:37;94676.09;;;26.23;56.24
12077;BME280;12420;42.676;23.262;2023-06-19T12:23:04;94650.00;;;26.40;57.25
12077;BME280;12420;42.676;23.262;2023-06-19T12:25:31;94670.84;;;26.74;55.37
12077;BME280;12420;42.676;23.262;2023-06-19T12:27:59;94670.34;;;26.50;55.85
12077;BME280;12420;42.676;23.262;2023-06-19T12:30:26;94662.91;;;26.57;56.21
12077;BME280;12420;42.676;23.262;2023-06-19T12:32:53;94657.88;;;26.41;57.07
12077;BME280;12420;42.676;23.262;2023-06-19T12:35:19;94651.81;;;26.33;56.58
12077;BME280;12420;42.676;23.262;2023-06-19T12:37:48;94657.28;;;26.29;56.30
12077;BME280;12420;42.676;23.262;2023-06-19T12:40:15;94657.28;;;26.15;57.71
12077;BME280;12420;42.676;23.262;2023-06-19T12:42:42;94649.25;;;26.39;57.00
12077;BME280;12420;42.676;23.262;2023-06-19T12:45:11;94674.75;;;26.67;56.15
12077;BME280;12420;42.676;23.262;2023-06-19T12:47:38;94655.53;;;26.52;55.35
12077;BME280;12420;42.676;23.262;2023-06-19T12:50:05;94678.81;;;26.34;54.73
12077;BME280;12420;42.676;23.262;2023-06-19T12:52:32;94661.56;;;26.30;54.82